Terminal Aerodrome Forecast
Issued by NWS

Home | Current Version | Previous Version | Text Only | Print | Product List | Glossary On
Versions: 1 2 3 4 5 6 7 8 9 10 11 12 13
122
FTUS46 KMFR 122326
TAFLMT
TAF
KLMT 122326Z 1300/1324 30012KT P6SM SCT030 BKN060
     FM130400 25003KT P6SM BKN040=

USA.gov is the U.S. government's official web portal to all federal, state and local government web resources and services.